createdAt,value
2022-09-24T00:01:48.437Z,23.20
2022-09-24T00:04:15.392Z,22.48
2022-09-24T00:06:45.413Z,34.35
2022-09-24T00:09:14.460Z,23.05
2022-09-24T00:11:44.668Z,21.85
2022-09-24T00:14:11.993Z,24.77
2022-09-24T00:16:42.309Z,24.98
2022-09-24T00:19:12.351Z,20.73
2022-09-24T00:21:40.869Z,20.45
2022-09-24T00:24:33.882Z,25.42
2022-09-24T00:27:03.414Z,22.88
2022-09-24T00:29:36.571Z,24.85
2022-09-24T00:32:04.946Z,24.85
2022-09-24T00:34:33.509Z,29.13
2022-09-24T00:37:00.375Z,21.58
2022-09-24T00:39:29.857Z,22.73
2022-09-24T00:41:56.779Z,22.88
2022-09-24T00:44:39.449Z,24.88
2022-09-24T00:47:09.842Z,25.80
2022-09-24T00:49:39.788Z,23.83
2022-09-24T00:52:07.029Z,29.15
2022-09-24T00:54:34.589Z,25.38
2022-09-24T00:57:01.857Z,24.20
2022-09-24T00:59:37.617Z,22.10
2022-09-24T01:02:09.360Z,25.75
2022-09-24T01:04:36.336Z,26.08
2022-09-24T01:07:03.345Z,21.02
2022-09-24T01:09:30.713Z,27.90
2022-09-24T01:12:19.186Z,21.63
2022-09-24T01:15:32.686Z,24.85
2022-09-24T01:18:06.943Z,22.77
2022-09-24T01:20:52.607Z,25.92
2022-09-24T01:23:48.934Z,28.00
2022-09-24T01:26:36.015Z,25.77
2022-09-24T01:29:29.412Z,24.38
2022-09-24T01:32:14.634Z,25.02
2022-09-24T01:34:48.279Z,23.98
2022-09-24T01:37:20.097Z,27.70
2022-09-24T01:39:47.872Z,26.25
2022-09-24T01:42:17.151Z,26.98
2022-09-24T01:44:44.777Z,25.45
2022-09-24T01:47:20.383Z,26.70
2022-09-24T01:49:47.383Z,28.77
2022-09-24T01:52:19.161Z,22.90
2022-09-24T01:54:51.845Z,24.45
2022-09-24T01:57:23.115Z,20.80
2022-09-24T02:00:00.260Z,25.85
2022-09-24T02:02:45.370Z,23.63
2022-09-24T02:05:26.251Z,21.60
2022-09-24T02:07:59.114Z,22.13
2022-09-24T02:10:31.473Z,20.13
2022-09-24T02:13:03.973Z,20.67
2022-09-24T02:15:34.920Z,19.15
2022-09-24T02:18:06.968Z,19.55
2022-09-24T02:20:36.062Z,19.85
2022-09-24T02:23:06.949Z,21.00
2022-09-24T02:25:50.689Z,20.63
2022-09-24T02:28:20.791Z,24.55
2022-09-24T02:30:54.351Z,20.85
2022-09-24T02:33:43.625Z,19.55
2022-09-24T02:36:12.168Z,24.48
2022-09-24T02:38:40.349Z,20.75
2022-09-24T02:41:08.916Z,21.45
2022-09-24T02:43:38.074Z,20.83
2022-09-24T02:46:06.233Z,19.45
2022-09-24T02:48:34.248Z,25.17
2022-09-24T02:51:01.346Z,20.75
2022-09-24T02:53:28.738Z,21.60
2022-09-24T02:55:55.634Z,21.98
2022-09-24T02:58:23.524Z,21.40
2022-09-24T03:00:50.565Z,23.23
2022-09-24T03:03:17.389Z,16.80
2022-09-24T03:05:44.923Z,17.33
2022-09-24T03:08:18.528Z,18.88
2022-09-24T03:10:47.438Z,20.23
2022-09-24T03:13:17.802Z,20.38
2022-09-24T03:21:09.270Z,19.80
2022-09-24T03:23:41.476Z,18.17
2022-09-24T03:26:09.016Z,23.65
2022-09-24T03:28:39.256Z,19.63
2022-09-24T03:31:08.089Z,16.42
2022-09-24T03:33:47.217Z,19.33
2022-09-24T03:36:26.101Z,18.92
2022-09-24T03:38:59.612Z,23.52
2022-09-24T03:41:27.729Z,20.52
2022-09-24T03:43:58.119Z,19.58
2022-09-24T03:46:30.169Z,17.42
2022-09-24T03:48:59.772Z,19.75
2022-09-24T03:51:27.133Z,19.10
2022-09-24T03:53:54.710Z,17.42
2022-09-24T03:56:24.208Z,20.13
2022-09-24T03:58:52.791Z,16.80
2022-09-24T04:01:23.233Z,18.33
2022-09-24T04:03:51.298Z,18.02
2022-09-24T04:06:24.821Z,19.63
2022-09-24T04:08:53.326Z,20.50
2022-09-24T04:11:20.411Z,23.17
2022-09-24T04:13:50.147Z,16.63
2022-09-24T04:16:18.017Z,17.85
2022-09-24T04:18:47.509Z,19.38
2022-09-24T04:21:14.430Z,15.15
2022-09-24T04:23:43.234Z,15.00
2022-09-24T04:26:10.479Z,16.33
2022-09-24T04:28:37.792Z,20.05
2022-09-24T04:31:07.043Z,17.95
2022-09-24T04:33:35.095Z,17.83
2022-09-24T04:36:04.578Z,17.60
2022-09-24T04:38:31.838Z,19.60
2022-09-24T04:41:06.812Z,16.25
2022-09-24T04:43:48.163Z,15.60
2022-09-24T04:46:19.561Z,17.60
2022-09-24T04:48:47.379Z,17.35
2022-09-24T04:51:17.233Z,19.05
2022-09-24T04:53:46.277Z,18.73
2022-09-24T04:56:14.290Z,15.88
2022-09-24T04:58:41.689Z,18.63
2022-09-24T05:01:09.473Z,19.92
2022-09-24T05:03:37.880Z,15.95
2022-09-24T05:06:04.797Z,21.20
2022-09-24T05:08:31.959Z,18.33
2022-09-24T05:11:04.016Z,17.45
2022-09-24T05:13:35.174Z,15.85
2022-09-24T05:24:02.922Z,19.08
2022-09-24T05:31:52.772Z,13.65
2022-09-24T05:34:21.910Z,17.35
2022-09-24T05:36:56.886Z,14.50
2022-09-24T05:39:24.788Z,17.75
2022-09-24T05:41:51.606Z,13.63
2022-09-24T05:44:22.049Z,13.32
2022-09-24T05:46:50.038Z,16.27
2022-09-24T05:49:17.333Z,16.15
2022-09-24T05:51:51.561Z,14.82
2022-09-24T05:56:54.496Z,15.20
2022-09-24T05:59:23.351Z,11.57
2022-09-24T06:01:52.295Z,15.60
2022-09-24T06:04:20.951Z,14.07
2022-09-24T06:06:47.887Z,12.75
2022-09-24T06:09:14.876Z,13.93
2022-09-24T06:11:43.412Z,12.93
2022-09-24T06:14:12.032Z,14.85
2022-09-24T06:16:40.330Z,9.90
2022-09-24T06:19:08.459Z,8.43
2022-09-24T06:21:35.391Z,10.90
2022-09-24T06:24:03.630Z,11.00
2022-09-24T06:26:33.234Z,10.60
2022-09-24T06:29:04.890Z,8.30
2022-09-24T06:31:32.345Z,10.85
2022-09-24T06:34:01.069Z,9.85
2022-09-24T06:36:28.378Z,9.18
2022-09-24T06:38:56.181Z,6.90
2022-09-24T06:41:27.312Z,9.82
2022-09-24T06:43:57.736Z,10.95
2022-09-24T06:46:26.432Z,8.07
2022-09-24T06:48:57.632Z,9.45
2022-09-24T06:51:30.361Z,6.35
2022-09-24T06:53:59.703Z,7.18
2022-09-24T06:56:29.181Z,8.43
2022-09-24T06:58:57.173Z,10.90
2022-09-24T07:01:24.148Z,7.10
2022-09-24T07:03:52.163Z,9.60
2022-09-24T07:06:20.121Z,5.35
2022-09-24T07:08:52.122Z,9.30
2022-09-24T07:11:21.962Z,5.97
2022-09-24T07:13:49.711Z,5.95
2022-09-24T07:16:21.805Z,6.90
2022-09-24T07:18:50.314Z,6.93
2022-09-24T07:21:22.492Z,6.18
2022-09-24T07:23:58.314Z,5.78
2022-09-24T07:26:26.852Z,5.93
2022-09-24T07:28:53.931Z,8.88
2022-09-24T07:31:20.921Z,6.57
2022-09-24T07:33:50.270Z,6.25
2022-09-24T07:36:19.564Z,6.97
2022-09-24T07:38:47.099Z,6.78
2022-09-24T07:41:16.914Z,8.50
2022-09-24T07:43:45.809Z,6.47
2022-09-24T07:46:12.671Z,9.32
2022-09-24T07:48:43.303Z,5.70
2022-09-24T07:51:12.365Z,4.57
2022-09-24T07:53:41.219Z,11.80
2022-09-24T07:56:11.763Z,5.80
2022-09-24T07:58:42.504Z,5.60
2022-09-24T08:01:12.181Z,8.17
2022-09-24T08:03:44.913Z,9.30
2022-09-24T08:06:12.910Z,6.80
2022-09-24T08:08:42.422Z,5.40
2022-09-24T08:11:13.339Z,7.53
2022-09-24T08:13:41.939Z,4.40
2022-09-24T08:16:09.117Z,4.70
2022-09-24T08:18:39.019Z,6.00
2022-09-24T08:21:13.260Z,7.00
2022-09-24T08:23:41.157Z,4.73
2022-09-24T08:26:09.952Z,5.93
2022-09-24T08:28:37.739Z,11.20
2022-09-24T08:31:09.165Z,5.07
2022-09-24T08:33:37.369Z,3.93
2022-09-24T08:36:07.568Z,8.00
2022-09-24T08:38:34.540Z,5.13
2022-09-24T08:41:13.867Z,4.00
2022-09-24T08:43:53.720Z,3.47
2022-09-24T08:46:46.499Z,4.47
2022-09-24T08:49:20.986Z,4.97
2022-09-24T08:52:06.417Z,4.43
2022-09-24T08:54:36.855Z,4.97
2022-09-24T08:57:18.029Z,4.57
2022-09-24T08:59:51.479Z,4.50
2022-09-24T09:02:38.830Z,4.50
2022-09-24T09:05:20.702Z,3.67
2022-09-24T09:08:16.758Z,4.70
2022-09-24T09:11:00.629Z,4.50
2022-09-24T09:13:39.952Z,7.80
2022-09-24T09:16:28.369Z,5.50
2022-09-24T09:19:04.672Z,3.83
2022-09-24T09:21:42.121Z,3.27
2022-09-24T09:24:25.312Z,3.40
2022-09-24T09:26:57.585Z,3.57
2022-09-24T09:29:29.192Z,3.17
2022-09-24T09:32:21.796Z,9.40
2022-09-24T09:35:16.388Z,3.93
2022-09-24T09:37:56.389Z,3.70
2022-09-24T09:40:31.983Z,3.67
2022-09-24T09:43:03.430Z,4.07
2022-09-24T09:45:34.392Z,2.53
2022-09-24T09:48:03.787Z,2.90
2022-09-24T09:50:42.759Z,3.70
2022-09-24T09:53:21.592Z,3.23
2022-09-24T09:55:57.477Z,3.57
2022-09-24T09:58:37.067Z,3.10
2022-09-24T10:01:08.834Z,3.40
2022-09-24T10:03:44.789Z,4.70
2022-09-24T10:06:14.500Z,3.73
2022-09-24T10:08:41.965Z,4.20
2022-09-24T10:11:17.540Z,3.00
2022-09-24T10:13:45.520Z,3.20
2022-09-24T10:16:16.044Z,2.90
2022-09-24T10:18:52.830Z,4.13
2022-09-24T10:21:37.414Z,3.67
2022-09-24T10:24:09.233Z,4.23
2022-09-24T10:26:43.862Z,3.50
2022-09-24T10:29:41.925Z,3.80
2022-09-24T10:32:25.833Z,3.80
2022-09-24T10:34:56.969Z,4.20
2022-09-24T10:37:24.139Z,3.80
2022-09-24T10:40:14.132Z,4.50
2022-09-24T10:42:41.320Z,4.20
2022-09-24T10:45:15.598Z,6.00
2022-09-24T10:48:14.986Z,3.00
2022-09-24T10:50:55.190Z,3.10
2022-09-24T10:53:27.986Z,2.80
2022-09-24T10:56:12.177Z,6.43
2022-09-24T10:59:03.696Z,7.50
2022-09-24T11:01:55.028Z,6.07
2022-09-24T11:04:38.966Z,7.40
2022-09-24T11:07:24.232Z,2.90
2022-09-24T11:10:05.242Z,3.53
2022-09-24T11:13:00.319Z,6.47
2022-09-24T11:15:51.460Z,3.80
2022-09-24T11:18:33.051Z,4.90
2022-09-24T11:21:21.939Z,4.60
2022-09-24T11:24:16.588Z,5.30
2022-09-24T11:27:08.280Z,3.60
2022-09-24T11:29:54.263Z,6.30
2022-09-24T11:32:33.879Z,3.30
2022-09-24T11:35:29.775Z,4.27
2022-09-24T11:38:04.134Z,3.93
2022-09-24T11:41:17.005Z,2.93
2022-09-24T11:44:17.815Z,3.70
2022-09-24T11:47:12.588Z,3.70
2022-09-24T11:50:01.266Z,3.73
2022-09-24T11:52:45.121Z,3.17
2022-09-24T11:55:12.340Z,2.93
2022-09-24T11:57:50.372Z,3.40
2022-09-24T12:00:20.787Z,4.37
2022-09-24T12:02:49.434Z,3.67
2022-09-24T12:05:43.834Z,4.47
2022-09-24T12:08:40.159Z,2.97
2022-09-24T12:11:32.917Z,3.40
2022-09-24T12:14:21.702Z,4.27
2022-09-24T12:16:54.739Z,3.37
2022-09-24T12:19:27.756Z,3.23
2022-09-24T12:21:56.986Z,2.50
2022-09-24T12:24:43.300Z,4.67
2022-09-24T12:27:18.500Z,3.23
2022-09-24T12:30:12.688Z,2.77
2022-09-24T12:32:55.423Z,2.67
2022-09-24T12:35:25.980Z,3.30
2022-09-24T12:38:01.195Z,2.67
2022-09-24T12:40:45.653Z,2.77
2022-09-24T12:43:42.412Z,2.70
2022-09-24T12:46:23.735Z,11.73
2022-09-24T12:48:52.335Z,5.40
2022-09-24T12:51:22.708Z,3.83
2022-09-24T12:53:59.889Z,3.80
2022-09-24T12:56:30.082Z,2.80
2022-09-24T12:58:58.185Z,4.87
2022-09-24T13:01:25.194Z,3.13
2022-09-24T13:04:02.676Z,4.90
2022-09-24T13:06:38.870Z,3.53
2022-09-24T13:09:32.544Z,3.93
2022-09-24T13:12:21.123Z,2.30
2022-09-24T13:15:03.007Z,3.80
2022-09-24T13:17:34.979Z,3.93
2022-09-24T13:20:06.785Z,4.00
2022-09-24T13:22:37.941Z,5.03
2022-09-24T13:25:08.124Z,2.47
2022-09-24T13:27:39.811Z,2.47
2022-09-24T13:30:11.227Z,3.73
2022-09-24T13:32:43.531Z,3.20
2022-09-24T13:35:21.163Z,3.33
2022-09-24T13:37:56.255Z,2.93
2022-09-24T13:40:28.178Z,9.73
2022-09-24T13:43:04.417Z,3.47
2022-09-24T13:45:33.147Z,2.30
2022-09-24T13:48:04.836Z,3.60
2022-09-24T13:50:37.308Z,2.77
2022-09-24T13:53:23.536Z,3.80
2022-09-24T13:55:53.877Z,2.23
2022-09-24T13:58:35.268Z,4.07
2022-09-24T14:01:13.221Z,4.47
2022-09-24T14:03:41.837Z,3.27
2022-09-24T14:06:42.704Z,2.23
2022-09-24T14:09:32.286Z,2.80
2022-09-24T14:12:02.550Z,2.97
2022-09-24T14:14:33.161Z,3.63
2022-09-24T14:17:12.618Z,3.43
2022-09-24T14:19:39.774Z,3.17
2022-09-24T14:22:23.678Z,2.77
2022-09-24T14:24:55.308Z,2.60
2022-09-24T14:27:23.930Z,4.57
2022-09-24T14:30:00.592Z,4.27
2022-09-24T14:32:29.686Z,3.10
2022-09-24T14:35:01.096Z,2.87
2022-09-24T14:37:40.617Z,3.00
2022-09-24T14:40:17.717Z,4.93
2022-09-24T14:42:50.530Z,2.77
2022-09-24T14:45:24.396Z,3.50
2022-09-24T14:48:16.664Z,5.57
2022-09-24T14:50:43.736Z,3.00
2022-09-24T14:53:22.352Z,4.60
2022-09-24T14:55:49.958Z,2.33
2022-09-24T14:58:29.225Z,2.63
2022-09-24T15:01:14.493Z,3.20
2022-09-24T15:03:47.785Z,2.57
2022-09-24T15:06:36.006Z,3.50
2022-09-24T15:09:17.079Z,3.10
2022-09-24T15:11:44.050Z,3.37
2022-09-24T15:14:39.510Z,3.03
2022-09-24T15:17:20.575Z,6.50
2022-09-24T15:19:47.718Z,4.93
2022-09-24T15:22:14.956Z,6.20
2022-09-24T15:24:42.514Z,3.70
2022-09-24T15:27:32.248Z,2.43
2022-09-24T15:30:02.108Z,2.03
2022-09-24T15:32:31.374Z,3.20
2022-09-24T15:34:59.182Z,2.40
2022-09-24T15:37:28.117Z,2.67
2022-09-24T15:39:59.723Z,3.00
2022-09-24T15:42:27.093Z,2.87
2022-09-24T15:44:55.086Z,2.43
2022-09-24T15:47:22.152Z,2.13
2022-09-24T15:49:49.619Z,2.47
2022-09-24T15:52:40.187Z,2.87
2022-09-24T15:55:14.828Z,2.97
2022-09-24T15:57:41.752Z,2.83
2022-09-24T16:00:16.985Z,3.97
2022-09-24T16:02:47.795Z,2.87
2022-09-24T16:05:16.215Z,2.30
2022-09-24T16:07:44.767Z,2.97
2022-09-24T16:10:21.016Z,2.63
2022-09-24T16:12:48.166Z,2.70
2022-09-24T16:15:19.989Z,3.43
2022-09-24T16:17:50.212Z,2.53
2022-09-24T16:20:17.532Z,2.53
2022-09-24T16:22:45.612Z,3.07
2022-09-24T16:25:15.527Z,4.47
2022-09-24T16:27:42.616Z,3.50
2022-09-24T16:30:11.998Z,3.00
2022-09-24T16:32:39.378Z,3.90
2022-09-24T16:35:12.524Z,5.37
2022-09-24T16:37:41.450Z,3.80
2022-09-24T16:40:11.356Z,2.63
2022-09-24T16:42:38.505Z,5.37
2022-09-24T16:45:08.619Z,3.50
2022-09-24T16:47:39.285Z,2.60
2022-09-24T16:50:06.914Z,5.30
2022-09-24T16:52:34.922Z,4.27
2022-09-24T16:55:02.089Z,4.53
2022-09-24T16:57:29.827Z,4.60
2022-09-24T17:02:32.973Z,4.47
2022-09-24T17:05:01.703Z,4.30
2022-09-24T17:07:33.503Z,10.10
2022-09-24T17:10:18.562Z,7.87
2022-09-24T17:12:49.007Z,4.53
2022-09-24T17:15:20.641Z,4.40
2022-09-24T17:17:50.405Z,8.63
2022-09-24T17:20:19.745Z,7.00
2022-09-24T17:22:49.187Z,7.20
2022-09-24T17:25:16.277Z,5.70
2022-09-24T17:27:45.337Z,8.82
2022-09-24T17:30:13.227Z,9.68
2022-09-24T17:32:40.198Z,8.43
2022-09-24T17:35:08.459Z,6.75
2022-09-24T17:37:35.448Z,7.35
2022-09-24T17:40:04.377Z,15.85
2022-09-24T17:42:34.457Z,6.40
2022-09-24T17:45:02.669Z,5.90
2022-09-24T17:47:53.330Z,10.20
2022-09-24T17:50:32.542Z,12.98
2022-09-24T17:53:00.603Z,7.22
2022-09-24T17:55:30.099Z,11.25
2022-09-24T17:58:08.410Z,10.57
2022-09-24T18:00:36.967Z,9.75
2022-09-24T18:03:05.220Z,7.43
2022-09-24T18:05:32.735Z,8.70
2022-09-24T18:08:02.448Z,9.43
2022-09-24T18:10:32.670Z,12.48
2022-09-24T18:12:59.764Z,9.95
2022-09-24T18:15:32.448Z,8.02
2022-09-24T18:18:10.311Z,9.75
2022-09-24T18:20:39.973Z,11.82
2022-09-24T18:23:09.755Z,11.57
2022-09-24T18:25:38.872Z,8.65
2022-09-24T19:27:17.958Z,17.52
2022-09-24T21:38:39.098Z,34.08
2022-09-24T21:41:13.597Z,33.42
2022-09-24T21:43:42.609Z,36.90
2022-09-24T21:46:12.449Z,29.70
2022-09-24T22:12:52.344Z,30.55
2022-09-24T22:15:19.363Z,31.48
2022-09-24T22:23:13.943Z,32.72
2022-09-24T22:25:40.941Z,28.13
2022-09-24T23:43:39.917Z,37.25
